Time;durP1;ratioP1;P1;durP2;ratioP2;P2;SDS_P1;SDS_P2;PMS_P1;PMS_P2;Temp;Humidity;BMP_temperature;BMP_pressure;BME280_temperature;BME280_humidity;BME280_pressure;Samples;Min_cycle;Max_cycle;Signal;HPM_P1;HPM_P2
2023/04/03 00:07:04;;;;;;;0.00;0.00;;;;;;;2.65;81.87;101750.03;6028705;23;20075;-76
2023/04/03 00:20:31;;;;;;;0.00;0.00;;;;;;;2.42;82.48;101758.13;5970159;23;20091;-76
2023/04/03 00:29:57;;;;;;;0.00;0.00;;;;;;;2.32;82.85;101761.03;5920563;24;20077;-76
2023/04/03 00:35:48;;;;;;;0.00;0.00;;;;;;;2.19;83.27;101752.69;5942236;24;20020;-76
2023/04/03 00:41:59;;;;;;;;;;;;;;;;;;;;;
2023/04/03 00:48:10;;;;;;;;;;;;;;;;;;;;;
2023/04/03 00:50:40;;;;;;;0.10;0.10;;;;;;;1.89;84.13;101739.03;6188443;23;20091;-74
2023/04/03 01:04:16;;;;;;;;;;;;;;;;;;;;;
2023/04/03 01:11:24;;;;;;;;;;;;;;;;;;;;;
2023/04/03 01:14:07;;;;;;;0.00;0.00;;;;;;;1.47;85.41;101724.03;6056733;23;20073;-75
2023/04/03 01:16:33;;;;;;;0.00;0.00;;;;;;;1.79;85.51;101782.41;6122200;23;20014;-75
2023/04/03 01:19:34;;;;;;;0.00;0.00;;;;;;;1.55;85.50;101743.72;6092871;23;20516;-74
2023/04/03 01:26:00;;;;;;;0.10;0.10;;;;;;;1.50;86.17;101751.47;6195410;23;20741;-76
2023/04/03 01:28:50;;;;;;;0.00;0.00;;;;;;;1.69;86.20;101792.56;6218218;23;20012;-75
2023/04/03 01:31:19;;;;;;;0.10;0.10;;;;;;;1.67;86.41;101786.50;6228906;23;20058;-75
2023/04/03 01:34:01;;;;;;;0.00;0.00;;;;;;;1.49;86.67;101762.44;6215157;23;20319;-75
2023/04/03 01:40:15;;;;;;;0.00;0.00;;;;;;;1.18;87.00;101720.94;6241474;23;20035;-76
2023/04/03 01:43:02;;;;;;;;;;;;;;;;;;;;;
2023/04/03 01:45:27;;;;;;;0.10;0.10;;;;;;;1.32;86.56;101742.78;6241130;23;20743;-75
2023/04/03 01:47:53;;;;;;;0.00;0.00;;;;;;;1.53;87.04;101772.72;6241469;23;20028;-75
2023/04/03 01:50:19;;;;;;;0.00;0.00;;;;;;;1.47;87.19;101773.41;6215811;23;20446;-75
2023/04/03 01:52:44;;;;;;;0.00;0.00;;;;;;;1.41;87.04;101757.91;6215527;23;20000;-76
2023/04/03 01:55:10;;;;;;;0.10;0.10;;;;;;;1.41;87.59;101757.09;6163459;23;20016;-76
2023/04/03 01:57:35;;;;;;;0.00;0.00;;;;;;;1.45;87.68;101759.25;6217595;23;20008;-75
2023/04/03 02:00:00;;;;;;;0.00;0.00;;;;;;;1.41;87.88;101744.44;6216446;23;20012;-75
2023/04/03 02:02:26;;;;;;;0.10;0.10;;;;;;;1.51;87.98;101769.34;6161385;23;20008;-76
2023/04/03 02:04:51;;;;;;;0.00;0.00;;;;;;;1.45;87.60;101747.66;6192746;23;20011;-77
2023/04/03 02:07:17;;;;;;;0.10;0.10;;;;;;;1.47;88.09;101765.31;6211572;23;20012;-76
2023/04/03 02:09:42;;;;;;;0.00;0.00;;;;;;;1.46;87.83;101760.09;6215820;23;20058;-76
2023/04/03 02:12:08;;;;;;;0.00;0.00;;;;;;;1.41;88.08;101762.47;6163637;23;20008;-77
2023/04/03 02:14:33;;;;;;;0.00;0.00;;;;;;;1.35;88.03;101758.63;6192207;23;20560;-77
2023/04/03 02:17:01;;;;;;;0.00;0.00;;;;;;;1.27;88.45;101766.72;6215462;23;20501;-76
2023/04/03 02:19:26;;;;;;;0.10;0.10;;;;;;;1.19;88.62;101760.31;6209478;23;20012;-76
2023/04/03 02:21:51;;;;;;;0.00;0.00;;;;;;;1.19;88.74;101765.72;6165717;23;20016;-76
2023/04/03 02:24:17;;;;;;;0.00;0.00;;;;;;;1.14;89.17;101768.09;6211140;23;20435;-76
2023/04/03 02:26:42;;;;;;;0.00;0.00;;;;;;;1.10;88.66;101766.75;6212976;23;20004;-76
2023/04/03 02:29:08;;;;;;;0.00;0.00;;;;;;;1.05;89.27;101769.09;6210160;23;20011;-74
2023/04/03 02:31:33;;;;;;;0.00;0.00;;;;;;;1.07;88.94;101777.88;6241667;23;20004;-75
2023/04/03 02:33:58;;;;;;;0.00;0.00;;;;;;;1.01;89.49;101773.16;6215889;23;20415;-76
2023/04/03 02:36:24;;;;;;;0.00;0.00;;;;;;;0.90;89.47;101754.66;6159745;23;20308;-76
2023/04/03 02:38:49;;;;;;;0.00;0.00;;;;;;;0.95;89.50;101765.75;6164840;23;20008;-75
2023/04/03 02:41:15;;;;;;;0.10;0.10;;;;;;;0.92;90.05;101769.63;6158981;23;20055;-75
2023/04/03 02:43:41;;;;;;;0.00;0.00;;;;;;;0.87;90.03;101772.81;6165694;23;20087;-74
2023/04/03 02:46:07;;;;;;;0.10;0.10;;;;;;;0.85;89.57;101774.84;6212860;23;20007;-75
2023/04/03 02:48:32;;;;;;;0.00;0.00;;;;;;;0.82;89.84;101777.03;6213956;23;20335;-75
2023/04/03 02:50:58;;;;;;;0.00;0.00;;;;;;;0.73;89.73;101760.03;6191593;23;20016;-76
2023/04/03 02:53:24;;;;;;;0.10;0.10;;;;;;;0.80;89.86;101771.78;6182636;23;20122;-75
2023/04/03 02:55:49;;;;;;;0.10;0.10;;;;;;;0.72;90.33;101758.34;6214041;23;20012;-75
2023/04/03 02:58:28;;;;;;;0.10;0.10;;;;;;;0.55;90.21;101740.50;6237323;23;19996;-75
2023/04/03 03:00:54;;;;;;;0.00;0.00;;;;;;;0.56;90.85;101756.50;6216638;23;20004;-75
2023/04/03 03:03:24;;;;;;;0.00;0.00;;;;;;;0.51;90.33;101754.31;6236691;23;20007;-75
2023/04/03 03:05:49;;;;;;;0.10;0.10;;;;;;;0.50;90.52;101758.00;6215338;23;20092;-75
2023/04/03 03:08:15;;;;;;;0.00;0.00;;;;;;;0.53;91.29;101770.28;6215363;23;20138;-75
2023/04/03 03:10:40;;;;;;;0.00;0.00;;;;;;;0.45;91.35;101763.06;6205872;23;20019;-75
2023/04/03 03:13:06;;;;;;;0.00;0.00;;;;;;;0.43;90.33;101765.06;6164359;23;20004;-75
2023/04/03 03:19:06;;;;;;;0.10;0.10;;;;;;;0.31;90.92;101755.63;6237663;23;20054;-74
2023/04/03 03:29:35;;;;;;;0.10;0.10;;;;;;;0.19;91.30;101752.41;5970694;24;20004;-76
2023/04/03 03:33:21;;;;;;;;;;;;;;;;;;;;;
2023/04/03 03:43:12;;;;;;;0.10;0.10;;;;;;;-0.25;92.41;101714.97;5895028;24;20097;-76
2023/04/03 03:53:37;;;;;;;;;;;;;;;;;;;;;
2023/04/03 03:59:48;;;;;;;;;;;;;;;;;;;;;
2023/04/03 04:09:10;;;;;;;0.00;0.00;;;;;;;-0.39;93.48;101716.44;6017199;23;20127;-76
2023/04/03 04:11:39;;;;;;;0.00;0.00;;;;;;;-0.23;93.07;101743.38;6094125;23;20029;-76
2023/04/03 04:14:05;;;;;;;0.10;0.10;;;;;;;-0.12;93.47;101744.06;6114734;23;20009;-77
2023/04/03 04:16:31;;;;;;;0.00;0.00;;;;;;;0.00;92.97;101745.47;6115169;23;20012;-76
2023/04/03 04:18:56;;;;;;;0.10;0.10;;;;;;;0.21;92.74;101744.19;6209941;23;20008;-75
2023/04/03 04:21:22;;;;;;;0.10;0.10;;;;;;;0.32;92.15;101736.63;6147310;23;20016;-76
2023/04/03 04:23:47;;;;;;;0.10;0.10;;;;;;;0.45;92.28;101730.75;6206515;23;20091;-76
2023/04/03 04:26:12;;;;;;;0.10;0.10;;;;;;;0.71;91.74;101751.28;6157274;23;20055;-75
2023/04/03 04:28:38;;;;;;;0.00;0.00;;;;;;;0.73;91.58;101729.56;6183991;23;20020;-75
2023/04/03 04:31:03;;;;;;;0.10;0.10;;;;;;;0.82;91.36;101732.09;6178695;23;20020;-75
2023/04/03 04:33:29;;;;;;;0.10;0.10;;;;;;;0.97;91.57;101737.63;6157977;23;20023;-75
2023/04/03 04:35:55;;;;;;;0.10;0.10;;;;;;;0.94;91.67;101718.28;6153519;23;20371;-75
2023/04/03 04:38:20;;;;;;;0.10;0.10;;;;;;;1.13;91.33;101735.94;6184276;23;20058;-75
2023/04/03 04:40:47;;;;;;;0.10;0.10;;;;;;;1.15;90.96;101737.41;6180101;23;20004;-76
2023/04/03 04:43:14;;;;;;;0.00;0.00;;;;;;;1.13;90.54;101728.69;6183310;23;20012;-75
2023/04/03 04:45:40;;;;;;;0.00;0.00;;;;;;;1.01;91.34;101719.28;6183029;23;20043;-75
2023/04/03 04:48:05;;;;;;;0.00;0.00;;;;;;;0.98;91.49;101731.25;6180621;23;20001;-75
2023/04/03 04:50:31;;;;;;;0.10;0.10;;;;;;;0.88;91.04;101735.97;6184224;23;20047;-76
2023/04/03 04:52:56;;;;;;;0.00;0.00;;;;;;;0.66;91.81;101721.34;6157537;23;20016;-76
2023/04/03 04:55:22;;;;;;;0.10;0.10;;;;;;;0.49;92.15;101718.63;6178765;23;20005;-76
2023/04/03 04:57:47;;;;;;;0.10;0.10;;;;;;;0.43;92.71;101726.53;6184323;23;20056;-75
2023/04/03 05:00:14;;;;;;;0.10;0.10;;;;;;;0.36;92.89;101726.34;6155506;23;20435;-76
2023/04/03 05:02:40;;;;;;;0.10;0.10;;;;;;;0.27;93.21;101728.19;6183731;23;20011;-76
2023/04/03 05:05:06;;;;;;;0.00;0.00;;;;;;;0.20;93.87;101734.41;6178297;23;20384;-76
2023/04/03 05:07:31;;;;;;;0.10;0.10;;;;;;;0.16;93.43;101729.38;6135821;23;20012;-76
2023/04/03 05:09:56;;;;;;;0.10;0.10;;;;;;;0.12;93.94;101741.47;6158432;23;20009;-76
2023/04/03 05:12:22;;;;;;;0.10;0.10;;;;;;;0.05;94.22;101729.66;6153301;23;20092;-75
2023/04/03 05:14:47;;;;;;;0.10;0.10;;;;;;;0.05;94.28;101740.44;6183782;23;20013;-75
2023/04/03 05:17:13;;;;;;;0.10;0.10;;;;;;;-0.03;94.09;101732.31;6179569;23;20008;-76
2023/04/03 05:19:38;;;;;;;0.10;0.10;;;;;;;-0.04;94.04;101730.66;6183211;23;20013;-76
2023/04/03 05:22:04;;;;;;;0.00;0.00;;;;;;;-0.05;94.23;101728.97;6171033;23;20028;-75
2023/04/03 05:24:29;;;;;;;0.10;0.10;;;;;;;-0.08;94.53;101729.31;6182970;23;20012;-76
2023/04/03 05:26:55;;;;;;;0.00;0.00;;;;;;;-0.13;93.97;101715.50;6207392;23;20009;-76
2023/04/03 05:29:21;;;;;;;0.10;0.10;;;;;;;-0.03;94.28;101732.31;6202991;23;20014;-75
2023/04/03 05:31:49;;;;;;;0.10;0.10;;;;;;;-0.02;94.24;101734.03;6233617;23;20312;-76
2023/04/03 05:34:14;;;;;;;0.10;0.10;;;;;;;-0.01;94.49;101716.88;6204381;23;20324;-76
2023/04/03 05:36:40;;;;;;;0.00;0.00;;;;;;;0.20;94.37;101737.09;6234380;23;20017;-75
2023/04/03 05:39:05;;;;;;;0.10;0.10;;;;;;;0.16;94.22;101720.44;6204367;23;20067;-75
2023/04/03 05:41:30;;;;;;;0.00;0.00;;;;;;;0.29;93.34;101731.56;6208464;23;20013;-75
2023/04/03 05:43:56;;;;;;;0.10;0.10;;;;;;;0.21;94.04;101712.72;6208202;23;20088;-74
2023/04/03 05:46:21;;;;;;;0.00;0.00;;;;;;;0.26;93.91;101725.66;6180138;23;20023;-75
2023/04/03 05:48:47;;;;;;;0.00;0.00;;;;;;;0.24;93.35;101711.56;6208466;23;20028;-75
2023/04/03 05:51:18;;;;;;;0.10;0.10;;;;;;;0.30;93.56;101724.34;6180679;23;20008;-75
2023/04/03 05:53:45;;;;;;;0.10;0.10;;;;;;;0.26;93.65;101715.75;6208137;23;20008;-75
2023/04/03 05:56:11;;;;;;;0.00;0.00;;;;;;;0.29;94.28;101722.66;6159796;23;20016;-75
2023/04/03 05:58:36;;;;;;;0.00;0.00;;;;;;;0.30;93.84;101716.28;6179808;23;20119;-74
2023/04/03 06:01:02;;;;;;;0.00;0.00;;;;;;;0.42;93.94;101723.00;6186223;23;20054;-75
2023/04/03 06:03:27;;;;;;;0.10;0.10;;;;;;;0.45;94.16;101721.81;6179282;23;20091;-76
2023/04/03 06:05:52;;;;;;;0.00;0.00;;;;;;;0.51;93.85;101724.69;6208922;23;20028;-76
2023/04/03 06:08:18;;;;;;;0.10;0.10;;;;;;;0.55;93.71;101717.13;6207544;23;20027;-78
2023/04/03 06:10:44;;;;;;;0.00;0.00;;;;;;;0.69;93.29;101731.78;6209111;23;20008;-80
2023/04/03 06:13:10;;;;;;;0.00;0.00;;;;;;;0.69;93.51;101715.63;6211311;23;20076;-77
2023/04/03 06:15:40;;;;;;;0.00;0.00;;;;;;;0.70;93.73;101714.59;6206454;23;20369;-77
2023/04/03 06:18:06;;;;;;;0.00;0.00;;;;;;;0.89;93.44;101736.78;6210331;23;20005;-77
2023/04/03 06:20:31;;;;;;;0.00;0.00;;;;;;;0.85;93.02;101718.28;6212243;22;20020;-77
2023/04/03 06:22:57;;;;;;;0.00;0.00;;;;;;;0.92;93.28;101720.28;6214360;23;20020;-77
2023/04/03 06:25:26;;;;;;;0.00;0.00;;;;;;;0.96;93.29;101711.69;6185441;23;20016;-77
2023/04/03 06:27:51;;;;;;;0.00;0.00;;;;;;;1.02;93.40;101710.16;6239863;23;20007;-77
2023/04/03 06:30:27;;;;;;;0.00;0.00;;;;;;;1.12;93.28;101721.59;6213045;23;20012;-77
2023/04/03 06:33:00;;;;;;;0.00;0.00;;;;;;;1.20;93.33;101710.81;6212916;23;20411;-77
2023/04/03 06:35:36;;;;;;;;;;;;;;;;;;;;;
2023/04/03 06:38:23;;;;;;;;;;;;;;;;;;;;;
2023/04/03 06:40:59;;;;;;;;;;;;;;;;;;;;;
2023/04/03 06:43:35;;;;;;;0.00;0.00;;;;;;;2.27;91.42;101710.28;6242276;23;20089;-77
2023/04/03 06:46:04;;;;;;;0.00;0.00;;;;;;;2.58;90.12;101716.66;6186141;23;20039;-77
2023/04/03 06:51:26;;;;;;;0.00;0.00;;;;;;;3.31;87.97;101727.78;6224335;23;20011;-78
2023/04/03 06:53:53;;;;;;;0.10;0.10;;;;;;;3.49;87.54;101730.13;6214718;23;19993;-77
2023/04/03 06:56:37;;;;;;;0.00;0.00;;;;;;;3.65;86.51;101718.25;6215701;23;20092;-77
2023/04/03 06:59:14;;;;;;;0.10;0.10;;;;;;;3.82;86.77;101718.88;6215003;23;20023;-75
2023/04/03 07:02:00;;;;;;;;;;;;;;;;;;;;;
2023/04/03 07:04:41;;;;;;;0.00;0.00;;;;;;;4.27;85.14;101737.72;6239989;23;20133;-77
2023/04/03 07:07:56;;;;;;;;;;;;;;;;;;;;;
2023/04/03 07:11:11;;;;;;;0.10;0.10;;;;;;;4.51;83.91;101728.38;6240425;23;20120;-78
2023/04/03 07:13:41;;;;;;;0.00;0.00;;;;;;;4.54;83.85;101700.88;6197653;23;20000;-76
2023/04/03 07:19:06;;;;;;;0.00;0.00;;;;;;;4.78;82.99;101696.94;6223745;23;20332;-77
2023/04/03 07:21:50;;;;;;;;;;;;;;;;;;;;;
2023/04/03 07:24:33;;;;;;;;;;;;;;;;;;;;;
2023/04/03 07:27:10;;;;;;;0.00;0.00;;;;;;;5.69;80.59;101720.44;6216485;23;20083;-76
2023/04/03 07:29:36;;;;;;;0.10;0.10;;;;;;;5.81;79.70;101706.28;6210658;23;20004;-77
2023/04/03 07:32:10;;;;;;;0.00;0.00;;;;;;;5.90;78.62;101711.34;6238583;23;20481;-77
2023/04/03 07:34:36;;;;;;;0.00;0.00;;;;;;;5.87;78.73;101728.06;6213275;23;20398;-76
2023/04/03 07:37:04;;;;;;;0.10;0.10;;;;;;;5.75;78.69;101714.22;6206319;23;20031;-78
2023/04/03 07:40:02;;;;;;;;;;;;;;;;;;;;;
2023/04/03 07:42:31;;;;;;;0.00;0.00;;;;;;;5.67;79.22;101717.09;6223495;23;20079;-76
2023/04/03 07:45:18;;;;;;;;;;;;;;;;;;;;;
2023/04/03 07:47:52;;;;;;;0.00;0.00;;;;;;;5.50;79.75;101699.47;6211808;23;20083;-78
2023/04/03 07:50:57;;;;;;;0.05;0.05;;;;;;;5.34;79.44;101685.19;6214134;23;20008;-79
2023/04/03 07:53:24;;;;;;;0.00;0.00;;;;;;;5.49;80.32;101719.50;6238046;23;20058;-79
2023/04/03 07:56:19;;;;;;;;;;;;;;;;;;;;;
2023/04/03 07:58:47;;;;;;;0.00;0.00;;;;;;;5.53;80.54;101709.94;6244016;23;20108;-81
2023/04/03 08:01:15;;;;;;;0.00;0.00;;;;;;;6.05;80.34;101707.69;6211797;23;20035;-82
2023/04/03 08:03:43;;;;;;;0.10;0.10;;;;;;;6.72;78.45;101703.19;6190317;23;20008;-78
2023/04/03 08:06:10;;;;;;;0.00;0.00;;;;;;;7.19;76.23;101730.34;6210215;23;20016;-81
2023/04/03 08:08:43;;;;;;;0.00;0.00;;;;;;;7.12;74.64;101719.44;6215377;23;20615;-81
2023/04/03 08:11:14;;;;;;;0.00;0.00;;;;;;;7.11;75.01;101722.38;6210326;23;20008;-80
2023/04/03 08:13:41;;;;;;;0.00;0.00;;;;;;;7.59;75.36;101732.97;6213470;23;20007;-80
2023/04/03 08:16:30;;;;;;;0.10;0.10;;;;;;;9.22;71.18;101727.97;6184464;23;20078;-80
2023/04/03 08:18:55;;;;;;;0.00;0.00;;;;;;;11.17;64.10;101731.66;6197785;23;20019;-81
2023/04/03 08:21:21;;;;;;;0.00;0.00;;;;;;;13.36;55.88;101727.03;6210041;23;20052;-81
2023/04/03 08:23:50;;;;;;;0.00;0.00;;;;;;;15.38;50.74;101736.22;6238702;23;20050;-82
2023/04/03 08:29:25;;;;;;;;;;;;;;;;;;;;;
2023/04/03 08:31:51;;;;;;;0.10;0.10;;;;;;;20.92;37.89;101757.78;6235504;23;20083;-79
2023/04/03 08:34:17;;;;;;;0.00;0.00;;;;;;;21.81;35.90;101743.91;6209159;23;20427;-79
2023/04/03 08:36:43;;;;;;;0.00;0.00;;;;;;;22.43;34.49;101760.94;6210902;23;20015;-78
2023/04/03 08:39:11;;;;;;;0.00;0.00;;;;;;;23.35;33.81;101740.25;6214955;23;20004;-79
2023/04/03 08:41:48;;;;;;;0.00;0.00;;;;;;;24.47;32.26;101743.63;6209195;23;20004;-79
2023/04/03 08:44:55;;;;;;;0.00;0.00;;;;;;;24.81;30.86;101750.41;6240728;23;20001;-79
2023/04/03 08:47:37;;;;;;;0.00;0.00;;;;;;;25.52;29.95;101735.06;6154075;23;20073;-79
2023/04/03 08:50:13;;;;;;;0.00;0.00;;;;;;;25.18;29.00;101742.41;6212682;23;20049;-78
2023/04/03 08:52:45;;;;;;;0.00;0.00;;;;;;;24.70;30.66;101751.88;6239457;23;20008;-79
2023/04/03 08:55:26;;;;;;;0.00;0.00;;;;;;;23.77;30.32;101751.06;6233731;23;20584;-79
2023/04/03 08:58:03;;;;;;;0.00;0.00;;;;;;;23.30;30.81;101732.00;6216917;23;20035;-81
2023/04/03 09:00:41;;;;;;;0.00;0.00;;;;;;;25.48;28.43;101756.50;6211075;23;20481;-80
2023/04/03 09:03:15;;;;;;;0.00;0.00;;;;;;;27.11;26.42;101738.31;6239228;23;19996;-81
2023/04/03 09:05:42;;;;;;;0.00;0.00;;;;;;;29.16;24.19;101746.59;6213225;23;20012;-79
2023/04/03 09:08:33;;;;;;;0.00;0.00;;;;;;;31.35;22.24;101733.66;6215370;23;20011;-80
2023/04/03 09:11:05;;;;;;;0.00;0.00;;;;;;;32.72;20.31;101729.97;6214505;23;20031;-83
2023/04/03 09:13:57;;;;;;;0.00;0.00;;;;;;;33.23;18.83;101720.78;6213692;23;20450;-79
2023/04/03 09:16:50;;;;;;;0.00;0.00;;;;;;;33.48;18.78;101739.22;6238724;22;20020;-80
2023/04/03 09:22:37;;;;;;;0.00;0.00;;;;;;;33.97;18.24;101728.66;6230959;23;20043;-80
2023/04/03 09:25:10;;;;;;;0.00;0.00;;;;;;;35.04;16.86;101721.72;6239187;23;20012;-80
2023/04/03 09:27:38;;;;;;;0.00;0.00;;;;;;;35.58;17.22;101722.53;6209000;23;20007;-81
2023/04/03 09:30:04;;;;;;;0.00;0.00;;;;;;;35.91;16.59;101729.00;6214559;23;20008;-82
2023/04/03 09:33:00;;;;;;;0.00;0.00;;;;;;;36.45;16.08;101734.53;6187993;23;20007;-78
2023/04/03 09:35:50;;;;;;;0.00;0.00;;;;;;;35.83;16.25;101710.31;6187775;23;20508;-80
2023/04/03 09:38:23;;;;;;;0.00;0.00;;;;;;;36.29;15.66;101714.28;6239758;23;20023;-81
2023/04/03 09:41:11;;;;;;;;;;;;;;;35.73;15.04;101728.19;6165900;23;20087;-79
2023/04/03 09:43:38;;;;;;;0.00;0.00;;;;;;;35.85;14.65;101715.59;6225567;23;19904;-82
2023/04/03 09:46:34;;;;;;;0.00;0.00;;;;;;;36.78;14.76;101718.06;6212872;23;20410;-75
2023/04/03 09:49:38;;;;;;;;;;;;;;;;;;;;;
2023/04/03 09:52:47;;;;;;;0.00;0.00;;;;;;;31.26;17.25;101691.53;6220711;23;20079;-82
2023/04/03 09:55:36;;;;;;;0.00;0.00;;;;;;;27.13;20.07;101710.69;6237687;23;20335;-77
2023/04/03 09:58:23;;;;;;;0.00;0.00;;;;;;;23.58;23.34;101692.72;6241987;23;20081;-78
2023/04/03 10:00:57;;;;;;;0.00;0.00;;;;;;;22.16;25.96;101696.91;6219152;23;20007;-77
2023/04/03 10:03:35;;;;;;;0.00;0.00;;;;;;;26.06;24.18;101663.56;6212860;23;20033;-79
2023/04/03 10:06:13;;;;;;;;;;;;;;;;;;;;;
2023/04/03 10:08:43;;;;;;;0.00;0.00;;;;;;;28.96;18.40;101676.13;6240899;23;20083;-81
2023/04/03 10:11:18;;;;;;;0.00;0.00;;;;;;;25.94;21.05;101690.31;6218641;23;20008;-81
2023/04/03 10:13:54;;;;;;;0.00;0.00;;;;;;;23.85;23.43;101683.25;6212662;23;20031;-80
2023/04/03 10:16:33;;;;;;;0.00;0.00;;;;;;;23.16;24.67;101674.34;6215022;23;20435;-78
2023/04/03 10:19:25;;;;;;;0.00;0.00;;;;;;;22.54;25.30;101688.22;6213073;23;20000;-79
2023/04/03 10:21:59;;;;;;;0.00;0.00;;;;;;;22.29;26.82;101687.69;6244388;22;20011;-81
2023/04/03 10:24:40;;;;;;;0.00;0.00;;;;;;;25.37;25.25;101693.63;6218191;23;20008;-80
2023/04/03 10:27:13;;;;;;;0.00;0.00;;;;;;;29.25;20.49;101688.16;6215435;23;20011;-82
2023/04/03 10:32:37;;;;;;;0.00;0.00;;;;;;;34.80;16.99;101701.41;6237798;23;20079;-79
2023/04/03 10:35:34;;;;;;;0.00;0.00;;;;;;;37.18;14.18;101706.38;6215977;23;20374;-81
2023/04/03 10:38:20;;;;;;;0.00;0.00;;;;;;;32.08;16.17;101694.00;6204630;23;20442;-80
2023/04/03 10:41:16;;;;;;;0.00;0.00;;;;;;;28.25;18.88;101691.81;6215090;23;20026;-82
2023/04/03 10:43:57;;;;;;;0.00;0.00;;;;;;;26.35;20.87;101689.88;6180771;23;20008;-84
2023/04/03 10:47:06;;;;;;;;;;;;;;;;;;;;;
2023/04/03 10:49:52;;;;;;;;;;;;;;;;;;;;;
2023/04/03 10:52:40;;;;;;;0.00;0.00;;;;;;;27.76;21.08;101675.84;6241064;23;20781;-83
2023/04/03 10:55:26;;;;;;;0.00;0.00;;;;;;;32.93;17.20;101689.75;6213557;23;20579;-80
2023/04/03 10:57:59;;;;;;;0.00;0.00;;;;;;;31.35;16.71;101688.44;6241034;23;20008;-79
2023/04/03 11:01:00;;;;;;;;;;;;;;;;;;;;;
2023/04/03 11:03:45;;;;;;;;;;;;;;;;;;;;;
2023/04/03 11:06:24;;;;;;;;;;;;;;;;;;;;;
2023/04/03 11:09:26;;;;;;;0.00;0.00;;;;;;;42.10;12.46;101693.91;6233357;23;20325;-80
2023/04/03 11:12:00;;;;;;;0.00;0.00;;;;;;;43.05;11.49;101682.72;6213533;23;20501;-82
2023/04/03 11:17:55;;;;;;;0.00;0.00;;;;;;;38.90;12.37;101669.25;6235601;23;20419;-82
2023/04/03 11:21:03;;;;;;;0.00;0.00;;;;;;;40.89;11.73;101651.72;6212883;22;20004;-78
2023/04/03 11:27:47;;;;;;;;;;;;;;;;;;;;;
2023/04/03 11:37:36;;;;;;;0.00;0.00;;;;;;;40.98;9.96;101665.41;6020832;23;20034;-81
2023/04/03 11:41:30;;;;;;;;;;;;;;;;;;;;;
2023/04/03 11:49:03;;;;;;;;;;;;;;;;;;;;;
2023/04/03 12:43:37;;;;;;;0.00;0.00;;;;;;;49.26;5.54;101567.69;6168820;23;20364;-80
2023/04/03 12:46:24;;;;;;;0.00;0.00;;;;;;;49.05;6.12;101575.63;6204977;23;20036;-84
2023/04/03 12:49:00;;;;;;;0.00;0.00;;;;;;;49.56;5.91;101560.88;6214822;23;20004;-82
2023/04/03 12:51:46;;;;;;;0.00;0.00;;;;;;;50.35;5.75;101573.06;6211842;23;20118;-81
2023/04/03 12:54:19;;;;;;;0.00;0.00;;;;;;;49.68;6.07;101564.66;6213937;23;20065;-82
2023/04/03 13:00:39;;;;;;;0.00;0.00;;;;;;;50.30;6.05;101565.13;6220933;23;20023;-81
2023/04/03 13:03:27;;;;;;;0.00;0.00;;;;;;;47.78;6.26;101574.88;6224688;23;20010;-83
2023/04/03 13:06:03;;;;;;;0.00;0.00;;;;;;;46.81;6.81;101537.53;6240773;23;20403;-81
2023/04/03 13:09:21;;;;;;;0.00;0.00;;;;;;;44.99;7.06;101545.91;6237484;23;20113;-83
2023/04/03 13:11:44;;;;;;;0.00;0.00;;;;;;;40.81;8.68;101521.22;6193084;23;20015;-83
2023/04/03 13:17:41;;;;;;;;;;;;;;;;;;;;;
2023/04/03 13:20:36;;;;;;;;;;;;;;;;;;;;;
2023/04/03 13:23:24;;;;;;;;;;;;;;;;;;;;;
2023/04/03 13:25:53;;;;;;;0.00;0.00;;;;;;;47.10;7.42;101533.13;6239718;23;20084;-78
2023/04/03 13:28:23;;;;;;;0.00;0.00;;;;;;;47.59;7.00;101531.63;6212608;23;20000;-74
2023/04/03 13:31:16;;;;;;;0.00;0.00;;;;;;;47.34;7.43;101522.25;6235652;23;20055;-74
2023/04/03 13:34:09;;;;;;;0.00;0.00;;;;;;;47.66;7.02;101522.53;6214908;23;20004;-82
2023/04/03 13:37:15;;;;;;;;;;;;;;;;;;;;;
2023/04/03 13:44:09;;;;;;;;;;;;;;;;;;;;;
2023/04/03 13:47:08;;;;;;;0.00;0.00;;;;;;;48.36;6.52;101480.34;6238365;23;20011;-84
2023/04/03 13:50:25;;;;;;;0.00;0.00;;;;;;;48.28;6.58;101484.19;6237658;23;20007;-81
2023/04/03 13:53:46;;;;;;;;;;;;;;;;;;;;;
2023/04/03 13:56:52;;;;;;;0.00;0.00;;;;;;;48.94;6.37;101494.25;6200326;23;20083;-82
2023/04/03 13:59:27;;;;;;;;;;;;;;;;;;;;;
2023/04/03 14:02:33;;;;;;;;;;;;;;;;;;;;;
2023/04/03 14:06:07;;;;;;;;;;;;;;;;;;;;;
2023/04/03 14:08:49;;;;;;;;;;;;;;;48.19;6.14;101482.25;6238436;23;20083;-82
2023/04/03 14:11:57;;;;;;;;;;;;;;;;;;;;;
2023/04/03 14:14:42;;;;;;;0.00;0.00;;;;;;;47.83;6.89;101469.88;6239859;23;20056;-83
2023/04/03 14:17:43;;;;;;;0.00;0.00;;;;;;;47.59;6.49;101452.63;6242313;23;20411;-82
2023/04/03 14:24:10;;;;;;;;;;;;;;;;;;;;;
2023/04/03 14:26:36;;;;;;;0.00;0.00;;;;;;;46.79;7.18;101456.22;6232010;23;20095;-82
2023/04/03 14:29:21;;;;;;;0.00;0.00;;;;;;;45.31;6.55;101441.34;6190480;23;20095;-81
2023/04/03 14:31:59;;;;;;;0.00;0.00;;;;;;;43.97;7.52;101421.81;6219551;23;20078;-82
2023/04/03 14:34:50;;;;;;;0.00;0.00;;;;;;;44.86;7.50;101427.81;6187327;23;20004;-82
2023/04/03 14:37:32;;;;;;;0.00;0.00;;;;;;;45.92;7.57;101402.91;6212212;23;20008;-81
2023/04/03 14:40:26;;;;;;;0.00;0.00;;;;;;;46.10;7.37;101425.09;6211288;23;20000;-82
2023/04/03 14:44:03;;;;;;;;;;;;;;;;;;;;;
2023/04/03 14:46:36;;;;;;;0.00;0.00;;;;;;;45.82;6.85;101410.03;6229463;23;20012;-85
2023/04/03 14:52:34;;;;;;;;;;;;;;;;;;;;;
2023/04/03 14:55:31;;;;;;;;;;;;;;;;;;;;;
2023/04/03 14:58:39;;;;;;;;;;;;;;;;;;;;;
2023/04/03 15:08:15;;;;;;;0.00;0.00;;;;;;;44.61;8.10;101410.38;6190190;23;20046;-81
2023/04/03 15:11:42;;;;;;;;;;;;;;;;;;;;;
2023/04/03 15:14:36;;;;;;;;;;;;;;;;;;;;;
2023/04/03 15:17:12;;;;;;;;;;;;;;;;;;;;;
2023/04/03 15:27:45;;;;;;;;;;;;;;;;;;;;;
2023/04/03 15:30:44;;;;;;;;;;;;;;;;;;;;;
2023/04/03 15:33:23;;;;;;;;;;;;;;;;;;;;;
2023/04/03 15:36:01;;;;;;;0.00;0.00;;;;;;;43.09;8.98;101348.84;6246660;23;20019;-83
2023/04/03 15:39:23;;;;;;;0.00;0.00;;;;;;;43.20;8.97;101337.72;6217172;23;20012;-84
2023/04/03 15:41:59;;;;;;;;;;;;;;;;;;;;;
2023/04/03 15:44:25;;;;;;;0.00;0.00;;;;;;;42.80;9.05;101358.59;6241188;23;20056;-82
2023/04/03 15:47:09;;;;;;;0.00;0.00;;;;;;;42.33;9.34;101350.88;6215279;23;20023;-83
2023/04/03 15:49:58;;;;;;;0.00;0.00;;;;;;;41.44;9.43;101332.56;6213295;23;20323;-85
2023/04/03 15:52:41;;;;;;;0.00;0.00;;;;;;;40.99;10.10;101326.56;6216985;23;20034;-82
2023/04/03 15:55:15;;;;;;;;;;;;;;;41.13;9.91;101359.72;6215534;23;20012;-84
2023/04/03 15:57:57;;;;;;;0.00;0.00;;;;;;;40.76;10.24;101349.78;6215574;23;19957;-83
2023/04/03 16:00:54;;;;;;;0.00;0.00;;;;;;;40.35;10.37;101334.97;6213717;23;20007;-84
2023/04/03 16:03:26;;;;;;;0.00;0.00;;;;;;;40.39;10.49;101329.94;6221851;23;20039;-84
2023/04/03 16:05:51;;;;;;;0.00;0.00;;;;;;;39.65;10.06;101350.69;6213551;23;20086;-77
2023/04/03 16:08:30;;;;;;;;;;;;;;;;;;;;;
2023/04/03 16:10:56;;;;;;;0.00;0.00;;;;;;;37.20;11.06;101345.47;6215174;23;20083;-78
2023/04/03 16:13:21;;;;;;;0.00;0.00;;;;;;;37.03;11.48;101347.34;6210007;23;20008;-77
2023/04/03 16:15:48;;;;;;;0.00;0.00;;;;;;;36.96;11.95;101336.03;6168500;23;20016;-77
2023/04/03 16:18:14;;;;;;;0.00;0.00;;;;;;;37.42;11.40;101341.53;6209523;23;20431;-77
2023/04/03 16:20:40;;;;;;;0.00;0.00;;;;;;;37.21;11.73;101343.44;6208715;23;20335;-77
2023/04/03 16:23:38;;;;;;;;;;;;;;;;;;;;;
2023/04/03 16:26:17;;;;;;;;;;;;;;;;;;;;;
2023/04/03 16:28:47;;;;;;;0.00;0.00;;;;;;;36.16;12.21;101335.28;6240423;23;20110;-82
2023/04/03 16:31:13;;;;;;;0.00;0.00;;;;;;;36.11;12.22;101333.72;6204525;23;20078;-82
2023/04/03 16:33:41;;;;;;;0.00;0.00;;;;;;;35.72;12.29;101346.22;6210864;23;20028;-82
2023/04/03 16:36:07;;;;;;;0.00;0.00;;;;;;;34.84;12.52;101346.31;6228453;23;20012;-82
2023/04/03 16:38:38;;;;;;;0.00;0.00;;;;;;;33.99;13.22;101346.03;6209383;23;20433;-81
2023/04/03 16:42:19;;;;;;;;;;;;;;;;;;;;;
2023/04/03 16:44:58;;;;;;;0.00;0.00;;;;;;;33.27;14.19;101320.44;6233862;23;20091;-82
2023/04/03 16:47:24;;;;;;;0.00;0.00;;;;;;;33.02;13.93;101324.78;6213948;23;20070;-81
2023/04/03 16:49:49;;;;;;;0.00;0.00;;;;;;;33.08;14.61;101333.72;6212995;23;20431;-82
2023/04/03 16:52:15;;;;;;;0.00;0.00;;;;;;;33.08;14.88;101347.88;6212970;23;20012;-81
2023/04/03 16:54:40;;;;;;;0.00;0.00;;;;;;;32.97;15.07;101349.84;6163053;23;20154;-82
2023/04/03 16:57:06;;;;;;;0.00;0.00;;;;;;;32.42;15.02;101348.75;6216018;23;20137;-81
2023/04/03 16:59:41;;;;;;;0.00;0.00;;;;;;;31.90;15.44;101333.81;6244496;23;20031;-82
2023/04/03 17:02:07;;;;;;;0.00;0.00;;;;;;;31.73;15.50;101338.91;6214298;23;20016;-83
2023/04/03 17:04:33;;;;;;;0.00;0.00;;;;;;;31.65;15.80;101348.53;6238353;23;20054;-83